createdAt,value
2022-11-09T00:00:55.138Z,76.30
2022-11-09T00:03:22.085Z,76.30
2022-11-09T00:05:59.715Z,76.30
2022-11-09T00:08:26.864Z,76.30
2022-11-09T00:10:53.803Z,76.30
2022-11-09T00:13:21.158Z,76.30
2022-11-09T00:15:48.386Z,76.30
2022-11-09T00:18:15.126Z,76.20
2022-11-09T00:20:47.648Z,76.10
2022-11-09T00:23:16.415Z,76.00
2022-11-09T00:25:43.418Z,76.00
2022-11-09T00:28:10.251Z,75.90
2022-11-09T00:30:37.358Z,75.80
2022-11-09T00:33:04.219Z,75.80
2022-11-09T00:35:31.146Z,75.80
2022-11-09T00:38:00.730Z,75.80
2022-11-09T00:40:27.452Z,75.80
2022-11-09T00:42:54.331Z,75.70
2022-11-09T00:45:21.053Z,75.70
2022-11-09T00:47:47.851Z,75.80
2022-11-09T00:50:14.621Z,75.90
2022-11-09T00:52:41.387Z,76.20
2022-11-09T00:55:08.459Z,76.50
2022-11-09T00:57:35.146Z,76.20
2022-11-09T01:00:01.823Z,76.20
2022-11-09T01:02:28.548Z,76.70
2022-11-09T01:04:55.361Z,76.70
2022-11-09T01:07:22.135Z,76.80
2022-11-09T01:09:48.884Z,76.90
2022-11-09T01:12:15.581Z,77.00
2022-11-09T01:14:42.353Z,77.30
2022-11-09T01:17:09.110Z,77.40
2022-11-09T01:19:36.014Z,77.60
2022-11-09T01:22:02.785Z,78.60
2022-11-09T01:24:29.543Z,77.90
2022-11-09T01:26:56.277Z,78.00
2022-11-09T01:29:22.949Z,78.20
2022-11-09T01:31:49.715Z,78.40
2022-11-09T01:34:17.652Z,78.50
2022-11-09T01:36:44.453Z,78.70
2022-11-09T01:39:11.505Z,78.90
2022-11-09T01:41:38.314Z,79.00
2022-11-09T01:44:12.031Z,79.00
2022-11-09T01:46:50.103Z,79.10
2022-11-09T01:49:27.717Z,79.40
2022-11-09T01:51:59.329Z,79.40
2022-11-09T01:54:37.216Z,79.50
2022-11-09T01:57:10.482Z,79.60
2022-11-09T01:59:47.394Z,79.60
2022-11-09T02:02:14.600Z,79.60
2022-11-09T02:04:47.510Z,79.60
2022-11-09T02:07:15.008Z,79.70
2022-11-09T02:10:03.717Z,79.70
2022-11-09T02:12:34.051Z,79.60
2022-11-09T02:15:03.613Z,79.80
2022-11-09T02:17:31.204Z,79.90
2022-11-09T02:19:58.916Z,79.90
2022-11-09T02:22:26.239Z,79.90
2022-11-09T02:24:56.360Z,79.90
2022-11-09T02:27:24.207Z,80.00
2022-11-09T02:29:51.453Z,80.10
2022-11-09T02:32:24.224Z,80.10
2022-11-09T02:34:50.934Z,80.10
2022-11-09T02:37:39.514Z,80.00
2022-11-09T02:40:14.566Z,80.10
2022-11-09T02:42:41.487Z,80.10
2022-11-09T02:45:09.886Z,80.00
2022-11-09T02:47:36.649Z,79.90
2022-11-09T02:50:03.987Z,79.80
2022-11-09T02:52:30.710Z,79.80
2022-11-09T02:54:57.434Z,79.70
2022-11-09T02:57:24.202Z,79.70
2022-11-09T02:59:51.152Z,79.70
2022-11-09T03:02:17.907Z,79.70
2022-11-09T03:04:44.782Z,79.80
2022-11-09T03:07:11.779Z,79.70
2022-11-09T03:09:38.597Z,79.70
2022-11-09T03:12:25.679Z,79.70
2022-11-09T03:14:52.419Z,79.70
2022-11-09T03:17:19.138Z,79.70
2022-11-09T03:19:45.947Z,79.60
2022-11-09T03:22:12.715Z,79.50
2022-11-09T03:24:39.537Z,80.30
2022-11-09T03:27:06.358Z,79.40
2022-11-09T03:29:33.688Z,80.20
2022-11-09T03:32:03.650Z,79.20
2022-11-09T03:34:33.430Z,79.20
2022-11-09T03:37:00.189Z,79.10
2022-11-09T03:39:27.044Z,79.00
2022-11-09T03:41:53.986Z,79.00
2022-11-09T03:44:20.835Z,78.90
2022-11-09T03:46:48.216Z,78.90
2022-11-09T03:49:14.897Z,78.90
2022-11-09T03:51:41.579Z,78.70
2022-11-09T03:54:08.493Z,78.70
2022-11-09T03:56:35.269Z,78.50
2022-11-09T03:59:01.977Z,78.50
2022-11-09T04:01:28.738Z,78.50
2022-11-09T04:03:55.491Z,78.60
2022-11-09T04:06:22.174Z,78.50
2022-11-09T04:08:51.459Z,78.50
2022-11-09T04:11:18.736Z,78.50
2022-11-09T04:13:45.506Z,79.40
2022-11-09T04:16:18.187Z,78.60
2022-11-09T04:18:44.960Z,78.60
2022-11-09T04:21:11.743Z,78.70
2022-11-09T04:23:38.504Z,78.60
2022-11-09T04:26:05.319Z,78.70
2022-11-09T04:28:32.020Z,78.70
2022-11-09T04:31:02.317Z,78.80
2022-11-09T04:33:29.360Z,78.90
2022-11-09T04:36:00.854Z,79.20
2022-11-09T04:38:27.627Z,78.90
2022-11-09T04:40:54.345Z,78.90
2022-11-09T04:43:23.437Z,79.00
2022-11-09T04:45:50.243Z,79.00
2022-11-09T04:48:17.002Z,79.00
2022-11-09T04:50:43.729Z,79.00
2022-11-09T04:53:15.408Z,79.10
2022-11-09T04:55:42.609Z,79.20
2022-11-09T04:58:09.859Z,79.20
2022-11-09T05:00:36.710Z,79.10
2022-11-09T05:03:05.509Z,79.20
2022-11-09T05:05:36.751Z,79.20
2022-11-09T05:08:04.885Z,79.30
2022-11-09T05:10:32.268Z,79.40
2022-11-09T05:13:11.098Z,79.40
2022-11-09T05:15:38.080Z,79.30
2022-11-09T05:18:06.099Z,79.40
2022-11-09T05:20:33.329Z,79.40
2022-11-09T05:23:19.326Z,79.50
2022-11-09T05:25:46.777Z,79.50
2022-11-09T05:28:13.786Z,79.50
2022-11-09T05:30:40.589Z,79.60
2022-11-09T05:33:07.395Z,79.60
2022-11-09T05:35:34.432Z,79.70
2022-11-09T05:38:03.603Z,79.70
2022-11-09T05:40:30.404Z,79.90
2022-11-09T05:42:57.224Z,79.80
2022-11-09T05:45:41.984Z,79.90
2022-11-09T05:48:10.538Z,79.90
2022-11-09T05:50:38.188Z,79.90
2022-11-09T05:53:05.290Z,79.90
2022-11-09T05:55:32.071Z,80.00
2022-11-09T05:57:59.306Z,80.00
2022-11-09T06:00:26.866Z,80.00
2022-11-09T06:03:04.114Z,80.10
2022-11-09T06:05:33.420Z,80.20
2022-11-09T06:08:05.585Z,80.10
2022-11-09T06:10:32.756Z,80.10
2022-11-09T06:12:59.578Z,80.20
2022-11-09T06:15:26.500Z,80.20
2022-11-09T06:17:54.414Z,80.30
2022-11-09T06:20:22.270Z,80.20
2022-11-09T06:23:03.020Z,80.30
2022-11-09T06:25:34.091Z,80.40
2022-11-09T06:28:01.256Z,80.40
2022-11-09T06:30:28.323Z,80.50
2022-11-09T06:33:02.714Z,80.60
2022-11-09T06:35:29.993Z,80.50
2022-11-09T06:38:00.684Z,80.50
2022-11-09T06:40:28.664Z,80.60
2022-11-09T06:43:01.538Z,81.50
2022-11-09T06:45:30.016Z,80.70
2022-11-09T06:48:03.315Z,80.70
2022-11-09T06:50:32.957Z,80.70
2022-11-09T06:53:01.837Z,80.70
2022-11-09T06:55:29.373Z,80.80
2022-11-09T06:57:57.007Z,80.90
2022-11-09T07:00:26.739Z,80.90
2022-11-09T07:02:53.969Z,80.70
2022-11-09T07:05:21.073Z,80.80
2022-11-09T07:07:47.793Z,80.90
2022-11-09T07:10:14.608Z,80.90
2022-11-09T07:12:41.462Z,80.90
2022-11-09T07:15:09.855Z,81.00
2022-11-09T07:17:38.337Z,81.00
2022-11-09T07:20:06.995Z,81.00
2022-11-09T07:22:39.245Z,81.10
2022-11-09T07:25:13.747Z,81.20
2022-11-09T07:27:40.536Z,81.20
2022-11-09T07:30:07.868Z,81.20
2022-11-09T07:33:08.605Z,81.30
2022-11-09T07:35:27.347Z,81.30
2022-11-09T07:37:56.193Z,81.30
2022-11-09T07:40:22.886Z,81.20
2022-11-09T07:42:49.651Z,81.30
2022-11-09T07:45:16.831Z,81.20
2022-11-09T07:47:43.614Z,81.20
2022-11-09T07:50:10.643Z,81.20
2022-11-09T07:52:37.384Z,81.10
2022-11-09T07:55:04.457Z,81.10
2022-11-09T07:57:31.444Z,81.10
2022-11-09T08:00:01.349Z,81.00
2022-11-09T08:02:28.094Z,81.10
2022-11-09T08:04:55.068Z,81.00
2022-11-09T08:07:23.640Z,81.00
2022-11-09T08:09:50.506Z,81.00
2022-11-09T08:12:19.397Z,81.20
2022-11-09T08:14:49.204Z,81.70
2022-11-09T08:17:15.957Z,81.10
2022-11-09T08:19:42.714Z,80.60
2022-11-09T08:22:18.192Z,79.70
2022-11-09T08:24:47.378Z,79.00
2022-11-09T08:27:14.101Z,78.30
2022-11-09T08:29:40.850Z,77.40
2022-11-09T08:32:07.672Z,76.20
2022-11-09T08:34:34.449Z,76.30
2022-11-09T08:37:02.385Z,75.30
2022-11-09T08:39:32.853Z,75.70
2022-11-09T08:41:59.589Z,76.00
2022-11-09T08:44:28.501Z,76.40
2022-11-09T08:46:56.747Z,76.90
2022-11-09T08:49:23.598Z,77.10
2022-11-09T08:51:52.592Z,77.50
2022-11-09T08:54:32.031Z,77.70
2022-11-09T08:56:58.729Z,77.90
2022-11-09T08:59:25.467Z,78.10
2022-11-09T09:01:52.314Z,78.20
2022-11-09T09:04:19.177Z,78.40
2022-11-09T09:06:46.085Z,78.50
2022-11-09T09:09:14.265Z,78.60
2022-11-09T09:11:41.047Z,78.70
2022-11-09T09:14:07.730Z,78.70
2022-11-09T09:16:39.101Z,78.60
2022-11-09T09:19:05.923Z,78.60
2022-11-09T09:21:32.644Z,78.70
2022-11-09T09:23:59.349Z,78.60
2022-11-09T09:26:26.146Z,78.60
2022-11-09T09:28:58.737Z,78.60
2022-11-09T09:31:25.573Z,78.30
2022-11-09T09:33:52.422Z,78.20
2022-11-09T09:36:23.708Z,78.30
2022-11-09T09:38:52.109Z,78.20
2022-11-09T09:41:23.476Z,78.20
2022-11-09T09:43:55.195Z,78.00
2022-11-09T09:46:40.752Z,78.00
2022-11-09T09:49:15.475Z,77.90
2022-11-09T09:52:06.444Z,77.50
2022-11-09T09:54:42.318Z,77.50
2022-11-09T09:57:21.656Z,77.50
2022-11-09T09:59:54.934Z,77.40
2022-11-09T10:02:26.409Z,77.30
2022-11-09T10:04:59.861Z,77.20
2022-11-09T10:07:35.025Z,77.00
2022-11-09T10:10:20.639Z,77.20
2022-11-09T10:13:03.441Z,77.20
2022-11-09T10:15:42.807Z,77.30
2022-11-09T10:18:33.028Z,77.20
2022-11-09T10:21:16.841Z,76.90
2022-11-09T10:24:07.590Z,76.80
2022-11-09T10:26:44.776Z,76.60
2022-11-09T10:29:20.450Z,76.80
2022-11-09T10:31:49.059Z,76.70
2022-11-09T10:34:29.890Z,76.80
2022-11-09T10:37:32.310Z,76.90
2022-11-09T10:40:13.202Z,76.50
2022-11-09T10:42:49.250Z,76.50
2022-11-09T10:45:29.728Z,76.30
2022-11-09T10:47:56.506Z,76.20
2022-11-09T10:50:25.490Z,76.30
2022-11-09T10:52:52.650Z,76.10
2022-11-09T10:55:28.153Z,76.00
2022-11-09T10:58:25.072Z,76.00
2022-11-09T11:01:16.707Z,75.70
2022-11-09T11:03:44.788Z,75.70
2022-11-09T11:06:15.924Z,75.40
2022-11-09T11:08:46.003Z,75.70
2022-11-09T11:11:36.073Z,75.60
2022-11-09T11:14:09.207Z,75.40
2022-11-09T11:16:37.091Z,75.50
2022-11-09T11:19:05.099Z,75.20
2022-11-09T11:21:32.358Z,74.90
2022-11-09T11:24:20.509Z,74.40
2022-11-09T11:27:22.694Z,74.30
2022-11-09T11:30:29.164Z,75.00
2022-11-09T11:32:59.325Z,74.10
2022-11-09T11:35:28.745Z,74.10
2022-11-09T11:38:01.519Z,74.20
2022-11-09T11:40:38.540Z,74.50
2022-11-09T11:43:26.447Z,74.70
2022-11-09T11:46:05.576Z,75.10
2022-11-09T11:48:57.504Z,75.40
2022-11-09T11:51:38.159Z,75.30
2022-11-09T11:54:25.333Z,75.40
2022-11-09T11:56:55.522Z,75.40
2022-11-09T11:59:45.682Z,75.30
2022-11-09T12:02:43.512Z,75.30
2022-11-09T12:05:52.686Z,75.20
2022-11-09T12:08:50.041Z,74.90
2022-11-09T12:11:35.726Z,74.90
2022-11-09T12:14:32.841Z,74.70
2022-11-09T12:17:21.123Z,74.70
2022-11-09T12:20:24.640Z,75.00
2022-11-09T12:23:28.195Z,75.10
2022-11-09T12:26:23.909Z,74.90
2022-11-09T12:29:09.381Z,74.80
2022-11-09T12:32:04.864Z,74.90
2022-11-09T12:34:39.158Z,74.90
2022-11-09T12:37:16.180Z,74.60
2022-11-09T12:39:54.250Z,74.20
2022-11-09T12:42:36.125Z,73.70
2022-11-09T12:45:29.506Z,74.80
2022-11-09T12:47:59.430Z,73.70
2022-11-09T12:50:27.626Z,73.70
2022-11-09T12:52:54.756Z,73.60
2022-11-09T12:55:39.532Z,73.40
2022-11-09T12:58:07.707Z,73.00
2022-11-09T13:00:34.376Z,72.90
2022-11-09T13:03:05.458Z,72.80
2022-11-09T13:05:37.811Z,72.40
2022-11-09T13:08:15.854Z,72.30
2022-11-09T13:10:45.132Z,72.10
2022-11-09T13:13:11.764Z,71.90
2022-11-09T13:15:40.023Z,71.70
2022-11-09T13:18:46.225Z,71.70
2022-11-09T13:21:34.566Z,71.50
2022-11-09T13:24:49.505Z,71.40
2022-11-09T13:27:49.864Z,71.40
2022-11-09T13:30:25.227Z,71.40
2022-11-09T13:33:07.270Z,71.30
2022-11-09T13:35:40.171Z,71.50
2022-11-09T13:38:19.815Z,71.20
2022-11-09T13:40:50.334Z,70.80
2022-11-09T13:43:22.046Z,71.20
2022-11-09T13:45:55.267Z,70.90
2022-11-09T13:48:44.642Z,70.90
2022-11-09T13:51:37.546Z,70.70
2022-11-09T13:54:29.651Z,70.30
2022-11-09T13:56:57.396Z,69.90
2022-11-09T13:59:39.137Z,70.80
2022-11-09T14:02:23.961Z,70.40
2022-11-09T14:04:50.804Z,69.90
2022-11-09T14:07:20.596Z,69.50
2022-11-09T14:09:56.134Z,69.80
2022-11-09T14:12:29.126Z,69.90
2022-11-09T14:15:34.123Z,70.10
2022-11-09T14:18:31.647Z,69.60
2022-11-09T14:21:38.343Z,70.40
2022-11-09T14:24:34.148Z,70.40
2022-11-09T14:27:11.067Z,70.40
2022-11-09T14:29:51.445Z,70.60
2022-11-09T14:32:35.597Z,70.70
2022-11-09T14:35:24.873Z,70.60
2022-11-09T14:37:56.197Z,70.50
2022-11-09T14:40:31.370Z,70.50
2022-11-09T14:43:23.562Z,70.50
2022-11-09T14:45:53.239Z,70.50
2022-11-09T14:48:21.870Z,70.70
2022-11-09T14:50:52.280Z,70.70
2022-11-09T14:53:38.943Z,70.70
2022-11-09T14:56:09.732Z,70.70
2022-11-09T14:58:41.223Z,70.60
2022-11-09T15:01:25.580Z,70.50
2022-11-09T15:04:21.312Z,70.30
2022-11-09T15:06:57.518Z,70.40
2022-11-09T15:09:42.630Z,70.50
2022-11-09T15:12:20.839Z,70.40
2022-11-09T15:14:57.298Z,70.40
2022-11-09T15:17:24.047Z,70.30
2022-11-09T15:20:23.302Z,70.40
2022-11-09T15:22:56.232Z,71.20
2022-11-09T15:25:32.657Z,70.40
2022-11-09T15:28:20.004Z,70.40
2022-11-09T15:30:53.683Z,70.60
2022-11-09T15:33:48.244Z,70.70
2022-11-09T15:36:30.476Z,70.70
2022-11-09T15:39:11.797Z,70.80
2022-11-09T15:41:41.001Z,70.80
2022-11-09T15:44:08.405Z,71.00
2022-11-09T15:46:41.602Z,70.90
2022-11-09T15:49:21.111Z,70.90
2022-11-09T15:51:48.559Z,71.00
2022-11-09T15:54:16.414Z,71.10
2022-11-09T15:56:43.819Z,71.10
2022-11-09T15:59:24.707Z,71.10
2022-11-09T16:01:52.166Z,71.20
2022-11-09T16:04:19.033Z,71.30
2022-11-09T16:06:46.953Z,71.30
2022-11-09T16:09:14.667Z,71.40
2022-11-09T16:11:41.812Z,71.40
2022-11-09T16:14:08.657Z,71.40
2022-11-09T16:16:35.471Z,71.40
2022-11-09T16:19:02.227Z,71.40
2022-11-09T16:21:31.895Z,71.30
2022-11-09T16:23:58.962Z,71.40
2022-11-09T16:26:25.961Z,71.30
2022-11-09T16:28:54.810Z,71.30
2022-11-09T16:31:41.026Z,71.30
2022-11-09T16:34:11.037Z,71.20
2022-11-09T16:36:44.287Z,71.20
2022-11-09T16:39:17.267Z,71.20
2022-11-09T16:41:50.819Z,71.20
2022-11-09T16:44:23.673Z,71.10
2022-11-09T16:46:52.165Z,71.20
2022-11-09T16:49:19.040Z,71.20
2022-11-09T16:51:45.870Z,71.20
2022-11-09T16:54:14.974Z,71.20
2022-11-09T16:56:41.725Z,71.20
2022-11-09T16:59:08.573Z,71.30
2022-11-09T17:01:35.534Z,71.30
2022-11-09T17:04:02.343Z,71.30
2022-11-09T17:06:29.309Z,71.40
2022-11-09T17:08:56.967Z,71.60
2022-11-09T17:11:24.277Z,71.60
2022-11-09T17:13:58.805Z,71.60
2022-11-09T17:16:26.084Z,71.70
2022-11-09T17:18:54.132Z,71.70
2022-11-09T17:21:21.463Z,71.90
2022-11-09T17:23:48.632Z,72.00
2022-11-09T17:26:15.397Z,72.10
2022-11-09T17:28:43.309Z,72.00
2022-11-09T17:31:19.304Z,72.10
2022-11-09T17:33:46.174Z,72.30
2022-11-09T17:36:15.264Z,72.30
2022-11-09T17:38:45.502Z,72.40
2022-11-09T17:41:18.544Z,73.20
2022-11-09T17:43:45.541Z,72.50
2022-11-09T17:46:14.053Z,72.50
2022-11-09T17:48:42.467Z,72.60
2022-11-09T17:51:10.230Z,72.70
2022-11-09T17:53:40.106Z,72.80
2022-11-09T17:56:08.704Z,72.90
2022-11-09T17:58:38.552Z,72.90
2022-11-09T18:01:25.868Z,73.00
2022-11-09T18:03:52.960Z,73.00
2022-11-09T18:06:23.143Z,73.10
2022-11-09T18:09:10.859Z,73.20
2022-11-09T18:11:37.085Z,73.30
2022-11-09T18:14:04.300Z,73.20
2022-11-09T18:16:30.981Z,73.30
2022-11-09T18:19:02.167Z,73.40
2022-11-09T18:21:30.495Z,73.40
2022-11-09T18:23:57.249Z,73.60
2022-11-09T18:26:24.184Z,73.60
2022-11-09T18:28:51.003Z,73.70
2022-11-09T18:31:17.777Z,73.80
2022-11-09T18:33:44.587Z,73.90
2022-11-09T18:36:15.599Z,73.90
2022-11-09T18:38:43.569Z,73.90
2022-11-09T18:41:15.266Z,74.00
2022-11-09T18:43:42.507Z,74.10
2022-11-09T18:46:12.545Z,74.00
2022-11-09T18:48:39.517Z,74.10
2022-11-09T18:51:07.950Z,74.20
2022-11-09T18:53:37.740Z,74.20
2022-11-09T18:56:07.766Z,74.50
2022-11-09T18:58:35.093Z,74.50
2022-11-09T19:01:07.124Z,74.50
2022-11-09T19:03:34.747Z,75.40
2022-11-09T19:06:09.080Z,74.60
2022-11-09T19:08:54.442Z,74.70
2022-11-09T19:11:24.117Z,74.70
2022-11-09T19:13:50.800Z,74.80
2022-11-09T19:16:18.528Z,74.90
2022-11-09T19:18:45.374Z,74.90
2022-11-09T19:21:34.089Z,75.00
2022-11-09T19:24:03.864Z,75.20
2022-11-09T19:26:30.769Z,75.20
2022-11-09T19:28:57.573Z,75.20
2022-11-09T19:31:25.133Z,75.20
2022-11-09T19:33:52.520Z,75.30
2022-11-09T19:36:30.417Z,75.40
2022-11-09T19:38:58.040Z,75.30
2022-11-09T19:41:25.529Z,75.50
2022-11-09T19:43:54.731Z,75.50
2022-11-09T19:46:22.083Z,75.60
2022-11-09T19:48:49.002Z,75.70
2022-11-09T19:51:17.774Z,75.70
2022-11-09T19:53:55.972Z,75.80
2022-11-09T19:56:24.980Z,75.90
2022-11-09T19:58:53.900Z,75.80
2022-11-09T20:01:21.540Z,75.90
2022-11-09T20:03:50.336Z,76.00
2022-11-09T20:06:18.257Z,76.00
2022-11-09T20:08:45.171Z,76.10
2022-11-09T20:11:34.171Z,76.20
2022-11-09T20:14:01.050Z,76.30
2022-11-09T20:16:28.060Z,76.20
2022-11-09T20:18:57.996Z,76.30
2022-11-09T20:21:24.731Z,76.50
2022-11-09T20:23:51.659Z,76.50
2022-11-09T20:26:18.565Z,76.50
2022-11-09T20:28:47.804Z,76.50
2022-11-09T20:31:19.628Z,76.70
2022-11-09T20:33:46.756Z,76.80
2022-11-09T20:36:14.411Z,76.80
2022-11-09T20:38:41.963Z,76.80
2022-11-09T20:41:11.118Z,76.80
2022-11-09T20:43:38.000Z,77.00
2022-11-09T20:46:09.954Z,77.10
2022-11-09T20:48:54.922Z,77.20
2022-11-09T20:51:23.064Z,77.20
2022-11-09T20:53:50.725Z,77.30
2022-11-09T20:56:18.951Z,77.30
2022-11-09T20:58:46.456Z,77.30
2022-11-09T21:01:19.438Z,77.30
2022-11-09T21:03:47.263Z,77.40
2022-11-09T21:06:14.746Z,77.50
2022-11-09T21:08:51.341Z,77.50
2022-11-09T21:11:19.125Z,77.60
2022-11-09T21:13:53.172Z,77.60
2022-11-09T21:16:21.411Z,77.70
2022-11-09T21:18:48.767Z,77.80
2022-11-09T21:21:20.775Z,77.80
2022-11-09T21:24:06.400Z,77.80
2022-11-09T21:26:52.446Z,77.90
2022-11-09T21:29:42.877Z,77.90
2022-11-09T21:32:11.680Z,78.00
2022-11-09T21:34:38.981Z,78.00
2022-11-09T21:37:05.804Z,78.00
2022-11-09T21:39:32.888Z,78.20
2022-11-09T21:42:03.769Z,78.20
2022-11-09T21:44:32.544Z,78.30
2022-11-09T21:47:00.084Z,78.40
2022-11-09T21:49:27.169Z,78.40
2022-11-09T21:51:56.905Z,78.50
2022-11-09T21:54:23.821Z,79.40
2022-11-09T21:56:53.000Z,78.70
2022-11-09T21:59:20.287Z,78.60
2022-11-09T22:01:47.136Z,78.70
2022-11-09T22:04:17.646Z,78.80
2022-11-09T22:06:44.520Z,78.80
2022-11-09T22:09:17.948Z,78.80
2022-11-09T22:12:03.785Z,78.90
2022-11-09T22:14:49.790Z,79.00
2022-11-09T22:17:16.539Z,78.90
2022-11-09T22:20:02.122Z,78.90
2022-11-09T22:22:30.087Z,79.00
2022-11-09T22:24:56.895Z,79.10
2022-11-09T22:27:26.669Z,79.10
2022-11-09T22:29:53.384Z,79.20
2022-11-09T22:32:20.658Z,79.20
2022-11-09T22:34:50.471Z,79.30
2022-11-09T22:37:17.263Z,79.30
2022-11-09T22:39:47.623Z,79.40
2022-11-09T22:42:14.785Z,79.50
2022-11-09T22:44:41.467Z,79.50
2022-11-09T22:47:08.166Z,79.60
2022-11-09T22:49:36.908Z,79.70
2022-11-09T22:52:07.064Z,79.70
2022-11-09T22:54:33.773Z,79.80
2022-11-09T22:57:00.480Z,79.70
2022-11-09T22:59:27.238Z,79.80
2022-11-09T23:01:53.972Z,79.80
2022-11-09T23:04:20.911Z,79.90
2022-11-09T23:06:47.674Z,79.90
2022-11-09T23:09:14.633Z,79.90
2022-11-09T23:11:41.503Z,80.00
2022-11-09T23:14:12.154Z,80.00
2022-11-09T23:16:38.944Z,80.10
2022-11-09T23:19:05.670Z,80.10
2022-11-09T23:21:34.628Z,80.20
2022-11-09T23:24:07.300Z,80.20
2022-11-09T23:26:34.990Z,80.20
2022-11-09T23:29:02.096Z,80.30
2022-11-09T23:31:29.031Z,80.20
2022-11-09T23:33:57.798Z,80.20
2022-11-09T23:36:28.565Z,80.40
2022-11-09T23:38:55.235Z,80.40
2022-11-09T23:41:23.471Z,80.40
2022-11-09T23:43:54.311Z,80.50
2022-11-09T23:46:21.045Z,80.50
2022-11-09T23:48:47.762Z,80.50
2022-11-09T23:51:18.637Z,80.60
2022-11-09T23:53:50.318Z,80.60
2022-11-09T23:56:17.012Z,80.70
2022-11-09T23:58:49.126Z,80.70
